sensor_id;sensor_type;location;lat;lon;timestamp;temperature;humidity
54788;DHT22;59598;48.112;16.280;2023-10-31T00:00:04;14.70;1.00
54788;DHT22;59598;48.112;16.280;2023-10-31T00:02:36;14.80;1.00
54788;DHT22;59598;48.112;16.280;2023-10-31T00:05:07;14.80;1.00
54788;DHT22;59598;48.112;16.280;2023-10-31T00:07:39;14.80;1.00
54788;DHT22;59598;48.112;16.280;2023-10-31T00:10:16;14.80;1.00
54788;DHT22;59598;48.112;16.280;2023-10-31T00:12:47;14.90;1.00
54788;DHT22;59598;48.112;16.280;2023-10-31T00:15:26;15.20;1.00
54788;DHT22;59598;48.112;16.280;2023-10-31T00:18:02;15.40;1.00
54788;DHT22;59598;48.112;16.280;2023-10-31T00:20:33;15.50;1.00
54788;DHT22;59598;48.112;16.280;2023-10-31T00:23:05;15.50;1.00
54788;DHT22;59598;48.112;16.280;2023-10-31T00:25:39;15.60;1.00
54788;DHT22;59598;48.112;16.280;2023-10-31T00:28:14;15.60;1.00
54788;DHT22;59598;48.112;16.280;2023-10-31T00:30:46;15.60;1.00
54788;DHT22;59598;48.112;16.280;2023-10-31T00:33:20;15.50;1.00
54788;DHT22;59598;48.112;16.280;2023-10-31T00:35:53;15.50;1.00
54788;DHT22;59598;48.112;16.280;2023-10-31T00:38:27;15.50;1.00
54788;DHT22;59598;48.112;16.280;2023-10-31T00:40:58;15.50;1.00
54788;DHT22;59598;48.112;16.280;2023-10-31T00:43:35;15.50;1.00
54788;DHT22;59598;48.112;16.280;2023-10-31T00:46:06;15.40;1.00
54788;DHT22;59598;48.112;16.280;2023-10-31T00:48:39;15.50;1.00
54788;DHT22;59598;48.112;16.280;2023-10-31T00:51:18;15.40;1.00
54788;DHT22;59598;48.112;16.280;2023-10-31T00:53:55;15.40;1.00
54788;DHT22;59598;48.112;16.280;2023-10-31T00:56:27;15.50;99.90
54788;DHT22;59598;48.112;16.280;2023-10-31T00:59:00;15.50;99.90
54788;DHT22;59598;48.112;16.280;2023-10-31T01:01:31;15.40;1.00
54788;DHT22;59598;48.112;16.280;2023-10-31T01:04:03;15.40;1.00
54788;DHT22;59598;48.112;16.280;2023-10-31T01:06:46;15.40;1.00
54788;DHT22;59598;48.112;16.280;2023-10-31T01:09:20;15.50;99.90
54788;DHT22;59598;48.112;16.280;2023-10-31T01:11:51;15.60;99.90
54788;DHT22;59598;48.112;16.280;2023-10-31T01:14:23;15.70;99.90
54788;DHT22;59598;48.112;16.280;2023-10-31T01:16:54;15.80;99.90
54788;DHT22;59598;48.112;16.280;2023-10-31T01:19:28;15.90;99.90
54788;DHT22;59598;48.112;16.280;2023-10-31T01:21:59;15.90;99.90
54788;DHT22;59598;48.112;16.280;2023-10-31T01:24:33;15.90;99.90
54788;DHT22;59598;48.112;16.280;2023-10-31T01:27:04;15.90;99.90
54788;DHT22;59598;48.112;16.280;2023-10-31T01:29:36;15.80;99.90
54788;DHT22;59598;48.112;16.280;2023-10-31T01:32:07;15.70;99.90
54788;DHT22;59598;48.112;16.280;2023-10-31T01:34:44;15.70;99.90
54788;DHT22;59598;48.112;16.280;2023-10-31T01:37:20;15.70;99.90
54788;DHT22;59598;48.112;16.280;2023-10-31T01:39:54;15.60;99.90
54788;DHT22;59598;48.112;16.280;2023-10-31T01:42:26;15.50;99.90
54788;DHT22;59598;48.112;16.280;2023-10-31T01:44:57;15.60;99.90
54788;DHT22;59598;48.112;16.280;2023-10-31T01:47:29;15.60;99.90
54788;DHT22;59598;48.112;16.280;2023-10-31T01:50:03;15.60;99.90
54788;DHT22;59598;48.112;16.280;2023-10-31T01:52:37;15.50;99.90
54788;DHT22;59598;48.112;16.280;2023-10-31T01:55:09;15.40;99.90
54788;DHT22;59598;48.112;16.280;2023-10-31T01:57:41;15.40;99.90
54788;DHT22;59598;48.112;16.280;2023-10-31T02:00:15;15.40;99.90
54788;DHT22;59598;48.112;16.280;2023-10-31T02:02:52;15.40;99.90
54788;DHT22;59598;48.112;16.280;2023-10-31T02:05:25;15.40;99.90
54788;DHT22;59598;48.112;16.280;2023-10-31T02:07:58;15.50;90.10
54788;DHT22;59598;48.112;16.280;2023-10-31T02:10:33;15.60;99.90
54788;DHT22;59598;48.112;16.280;2023-10-31T02:13:12;15.70;99.90
54788;DHT22;59598;48.112;16.280;2023-10-31T02:15:46;15.70;99.90
54788;DHT22;59598;48.112;16.280;2023-10-31T02:18:18;15.70;99.90
54788;DHT22;59598;48.112;16.280;2023-10-31T02:20:49;15.70;99.90
54788;DHT22;59598;48.112;16.280;2023-10-31T02:23:23;15.80;99.90
54788;DHT22;59598;48.112;16.280;2023-10-31T02:25:56;15.80;99.90
54788;DHT22;59598;48.112;16.280;2023-10-31T02:28:29;15.90;99.90
54788;DHT22;59598;48.112;16.280;2023-10-31T02:31:02;16.00;99.90
54788;DHT22;59598;48.112;16.280;2023-10-31T02:33:39;16.00;99.90
54788;DHT22;59598;48.112;16.280;2023-10-31T02:36:10;16.20;2.50
54788;DHT22;59598;48.112;16.280;2023-10-31T02:38:41;16.30;1.00
54788;DHT22;59598;48.112;16.280;2023-10-31T02:41:13;16.30;1.00
54788;DHT22;59598;48.112;16.280;2023-10-31T02:43:44;16.20;1.00
54788;DHT22;59598;48.112;16.280;2023-10-31T02:46:16;16.20;1.00
54788;DHT22;59598;48.112;16.280;2023-10-31T02:48:48;16.10;1.00
54788;DHT22;59598;48.112;16.280;2023-10-31T02:51:20;16.10;1.00
54788;DHT22;59598;48.112;16.280;2023-10-31T02:54:15;16.20;1.00
54788;DHT22;59598;48.112;16.280;2023-10-31T02:56:51;16.20;1.00
54788;DHT22;59598;48.112;16.280;2023-10-31T02:59:22;16.20;1.00
54788;DHT22;59598;48.112;16.280;2023-10-31T03:02:13;16.20;1.00
54788;DHT22;59598;48.112;16.280;2023-10-31T03:08:20;16.40;1.00
54788;DHT22;59598;48.112;16.280;2023-10-31T03:10:51;16.60;1.00
54788;DHT22;59598;48.112;16.280;2023-10-31T03:13:23;16.70;1.00
54788;DHT22;59598;48.112;16.280;2023-10-31T03:15:54;16.70;1.00
54788;DHT22;59598;48.112;16.280;2023-10-31T03:18:26;16.70;1.00
54788;DHT22;59598;48.112;16.280;2023-10-31T03:20:57;16.80;1.00
54788;DHT22;59598;48.112;16.280;2023-10-31T03:23:31;16.80;1.00
54788;DHT22;59598;48.112;16.280;2023-10-31T03:26:05;16.60;1.00
54788;DHT22;59598;48.112;16.280;2023-10-31T03:28:37;16.50;1.00
54788;DHT22;59598;48.112;16.280;2023-10-31T03:31:11;16.40;1.00
54788;DHT22;59598;48.112;16.280;2023-10-31T03:33:45;16.20;1.00
54788;DHT22;59598;48.112;16.280;2023-10-31T03:39:46;15.80;1.00
54788;DHT22;59598;48.112;16.280;2023-10-31T03:42:17;15.70;1.00
54788;DHT22;59598;48.112;16.280;2023-10-31T03:48:19;15.50;1.00
54788;DHT22;59598;48.112;16.280;2023-10-31T03:50:55;15.40;65.50
54788;DHT22;59598;48.112;16.280;2023-10-31T03:53:26;15.40;50.30
54788;DHT22;59598;48.112;16.280;2023-10-31T03:59:31;15.30;35.80
54788;DHT22;59598;48.112;16.280;2023-10-31T04:02:02;15.30;26.10
54788;DHT22;59598;48.112;16.280;2023-10-31T04:04:34;15.30;53.40
54788;DHT22;59598;48.112;16.280;2023-10-31T04:07:08;15.20;51.00
54788;DHT22;59598;48.112;16.280;2023-10-31T04:09:39;15.20;99.90
54788;DHT22;59598;48.112;16.280;2023-10-31T04:12:14;15.10;99.90
54788;DHT22;59598;48.112;16.280;2023-10-31T04:18:16;15.10;1.00
54788;DHT22;59598;48.112;16.280;2023-10-31T04:20:50;15.00;1.00
54788;DHT22;59598;48.112;16.280;2023-10-31T04:23:21;15.00;1.00
54788;DHT22;59598;48.112;16.280;2023-10-31T04:25:52;15.00;10.90
54788;DHT22;59598;48.112;16.280;2023-10-31T04:28:29;14.90;98.30
54788;DHT22;59598;48.112;16.280;2023-10-31T04:31:00;14.80;99.90
54788;DHT22;59598;48.112;16.280;2023-10-31T04:33:34;14.80;99.90
54788;DHT22;59598;48.112;16.280;2023-10-31T04:36:07;14.70;99.90
54788;DHT22;59598;48.112;16.280;2023-10-31T04:38:41;14.70;99.90
54788;DHT22;59598;48.112;16.280;2023-10-31T04:41:13;14.70;99.90
54788;DHT22;59598;48.112;16.280;2023-10-31T04:43:47;14.70;99.90
54788;DHT22;59598;48.112;16.280;2023-10-31T04:49:49;14.70;99.90
54788;DHT22;59598;48.112;16.280;2023-10-31T04:52:20;14.70;99.90
54788;DHT22;59598;48.112;16.280;2023-10-31T04:54:53;14.80;99.90
54788;DHT22;59598;48.112;16.280;2023-10-31T04:57:25;14.80;99.90
54788;DHT22;59598;48.112;16.280;2023-10-31T04:59:56;14.70;99.90
54788;DHT22;59598;48.112;16.280;2023-10-31T05:02:30;14.70;99.90
54788;DHT22;59598;48.112;16.280;2023-10-31T05:05:01;14.70;99.90
54788;DHT22;59598;48.112;16.280;2023-10-31T05:07:34;14.60;99.90
54788;DHT22;59598;48.112;16.280;2023-10-31T05:10:06;14.60;99.90
54788;DHT22;59598;48.112;16.280;2023-10-31T05:12:40;14.50;99.90
54788;DHT22;59598;48.112;16.280;2023-10-31T05:15:12;14.50;1.00
54788;DHT22;59598;48.112;16.280;2023-10-31T05:17:43;14.40;1.00
54788;DHT22;59598;48.112;16.280;2023-10-31T05:20:16;14.30;1.00
54788;DHT22;59598;48.112;16.280;2023-10-31T05:22:50;14.30;1.00
54788;DHT22;59598;48.112;16.280;2023-10-31T05:25:27;14.20;1.00
54788;DHT22;59598;48.112;16.280;2023-10-31T05:27:58;14.20;1.00
54788;DHT22;59598;48.112;16.280;2023-10-31T05:30:32;14.10;1.00
54788;DHT22;59598;48.112;16.280;2023-10-31T05:33:04;14.00;1.00
54788;DHT22;59598;48.112;16.280;2023-10-31T05:35:38;14.00;1.00
54788;DHT22;59598;48.112;16.280;2023-10-31T05:38:14;13.90;1.00
54788;DHT22;59598;48.112;16.280;2023-10-31T05:40:50;13.90;1.00
54788;DHT22;59598;48.112;16.280;2023-10-31T05:43:22;14.00;1.00
54788;DHT22;59598;48.112;16.280;2023-10-31T05:49:21;13.90;1.00
54788;DHT22;59598;48.112;16.280;2023-10-31T05:51:53;13.90;99.90
54788;DHT22;59598;48.112;16.280;2023-10-31T05:54:25;14.00;99.90
54788;DHT22;59598;48.112;16.280;2023-10-31T05:56:57;14.00;99.90
54788;DHT22;59598;48.112;16.280;2023-10-31T05:59:31;14.00;99.90
54788;DHT22;59598;48.112;16.280;2023-10-31T06:02:04;13.80;99.90
54788;DHT22;59598;48.112;16.280;2023-10-31T06:08:03;13.70;1.00
54788;DHT22;59598;48.112;16.280;2023-10-31T06:10:36;13.60;1.00
54788;DHT22;59598;48.112;16.280;2023-10-31T06:13:13;13.60;1.00
54788;DHT22;59598;48.112;16.280;2023-10-31T06:19:12;13.80;99.90
54788;DHT22;59598;48.112;16.280;2023-10-31T06:21:47;13.80;99.90
54788;DHT22;59598;48.112;16.280;2023-10-31T06:24:21;13.70;99.90
54788;DHT22;59598;48.112;16.280;2023-10-31T06:26:54;13.60;1.00
54788;DHT22;59598;48.112;16.280;2023-10-31T06:29:28;13.60;99.90
54788;DHT22;59598;48.112;16.280;2023-10-31T06:32:02;13.60;99.90
54788;DHT22;59598;48.112;16.280;2023-10-31T06:34:36;13.70;99.90
54788;DHT22;59598;48.112;16.280;2023-10-31T06:37:07;13.70;99.90
54788;DHT22;59598;48.112;16.280;2023-10-31T06:39:39;13.70;99.90
54788;DHT22;59598;48.112;16.280;2023-10-31T06:42:10;13.70;99.90
54788;DHT22;59598;48.112;16.280;2023-10-31T06:44:42;13.70;99.90
54788;DHT22;59598;48.112;16.280;2023-10-31T06:47:16;13.70;99.90
54788;DHT22;59598;48.112;16.280;2023-10-31T06:49:49;13.70;99.90
54788;DHT22;59598;48.112;16.280;2023-10-31T06:52:29;13.70;99.90
54788;DHT22;59598;48.112;16.280;2023-10-31T06:55:05;13.60;99.90
54788;DHT22;59598;48.112;16.280;2023-10-31T06:57:37;13.60;89.40
54788;DHT22;59598;48.112;16.280;2023-10-31T07:00:10;13.60;88.80
54788;DHT22;59598;48.112;16.280;2023-10-31T07:02:49;13.60;98.70
54788;DHT22;59598;48.112;16.280;2023-10-31T07:05:20;13.60;99.90
54788;DHT22;59598;48.112;16.280;2023-10-31T07:07:52;13.60;99.90
54788;DHT22;59598;48.112;16.280;2023-10-31T07:10:23;13.60;95.60
54788;DHT22;59598;48.112;16.280;2023-10-31T07:12:55;13.50;11.40
54788;DHT22;59598;48.112;16.280;2023-10-31T07:15:26;13.50;1.00
54788;DHT22;59598;48.112;16.280;2023-10-31T07:18:00;13.60;17.00
54788;DHT22;59598;48.112;16.280;2023-10-31T07:20:38;13.60;89.40
54788;DHT22;59598;48.112;16.280;2023-10-31T07:23:12;13.50;47.20
54788;DHT22;59598;48.112;16.280;2023-10-31T07:25:51;13.50;56.40
54788;DHT22;59598;48.112;16.280;2023-10-31T07:28:28;13.50;49.50
54788;DHT22;59598;48.112;16.280;2023-10-31T07:31:02;13.50;74.10
54788;DHT22;59598;48.112;16.280;2023-10-31T07:33:34;13.50;48.50
54788;DHT22;59598;48.112;16.280;2023-10-31T07:36:06;13.50;79.20
54788;DHT22;59598;48.112;16.280;2023-10-31T07:38:38;13.50;86.00
54788;DHT22;59598;48.112;16.280;2023-10-31T07:41:12;13.50;96.00
54788;DHT22;59598;48.112;16.280;2023-10-31T07:43:46;13.40;46.70
54788;DHT22;59598;48.112;16.280;2023-10-31T07:46:18;13.40;72.60
54788;DHT22;59598;48.112;16.280;2023-10-31T07:48:54;13.40;52.20
54788;DHT22;59598;48.112;16.280;2023-10-31T07:51:29;13.40;16.50
54788;DHT22;59598;48.112;16.280;2023-10-31T07:54:04;13.50;1.00
54788;DHT22;59598;48.112;16.280;2023-10-31T07:56:35;13.50;1.00
54788;DHT22;59598;48.112;16.280;2023-10-31T07:59:10;13.60;99.90
54788;DHT22;59598;48.112;16.280;2023-10-31T08:01:42;13.50;99.90
54788;DHT22;59598;48.112;16.280;2023-10-31T08:04:14;13.60;99.90
54788;DHT22;59598;48.112;16.280;2023-10-31T08:06:48;13.60;99.90
54788;DHT22;59598;48.112;16.280;2023-10-31T08:09:23;13.60;99.90
54788;DHT22;59598;48.112;16.280;2023-10-31T08:11:57;13.60;99.90
54788;DHT22;59598;48.112;16.280;2023-10-31T08:14:28;13.70;99.90
54788;DHT22;59598;48.112;16.280;2023-10-31T08:17:03;13.70;74.50
54788;DHT22;59598;48.112;16.280;2023-10-31T08:19:40;13.70;45.40
54788;DHT22;59598;48.112;16.280;2023-10-31T08:22:11;13.70;1.00
54788;DHT22;59598;48.112;16.280;2023-10-31T08:28:11;13.70;1.00
54788;DHT22;59598;48.112;16.280;2023-10-31T08:30:43;13.80;1.00
54788;DHT22;59598;48.112;16.280;2023-10-31T08:33:18;13.80;1.00
54788;DHT22;59598;48.112;16.280;2023-10-31T08:35:52;13.70;1.00
54788;DHT22;59598;48.112;16.280;2023-10-31T08:38:24;13.70;1.00
54788;DHT22;59598;48.112;16.280;2023-10-31T08:41:02;13.70;1.00
54788;DHT22;59598;48.112;16.280;2023-10-31T08:43:33;13.70;1.00
54788;DHT22;59598;48.112;16.280;2023-10-31T08:46:05;13.70;1.00
54788;DHT22;59598;48.112;16.280;2023-10-31T08:48:36;13.60;1.00
54788;DHT22;59598;48.112;16.280;2023-10-31T08:51:10;13.60;1.00
54788;DHT22;59598;48.112;16.280;2023-10-31T08:53:42;13.60;1.00
54788;DHT22;59598;48.112;16.280;2023-10-31T08:56:13;13.60;1.00
54788;DHT22;59598;48.112;16.280;2023-10-31T08:58:47;13.60;1.00
54788;DHT22;59598;48.112;16.280;2023-10-31T09:01:19;13.60;1.00
54788;DHT22;59598;48.112;16.280;2023-10-31T09:03:53;13.60;1.00
54788;DHT22;59598;48.112;16.280;2023-10-31T09:06:29;13.60;1.00
54788;DHT22;59598;48.112;16.280;2023-10-31T09:09:05;13.60;1.00
54788;DHT22;59598;48.112;16.280;2023-10-31T09:11:41;13.60;1.00
54788;DHT22;59598;48.112;16.280;2023-10-31T09:14:16;13.60;1.00
54788;DHT22;59598;48.112;16.280;2023-10-31T09:16:48;13.50;1.00
54788;DHT22;59598;48.112;16.280;2023-10-31T09:19:21;13.40;1.00
54788;DHT22;59598;48.112;16.280;2023-10-31T09:21:53;13.40;1.00
54788;DHT22;59598;48.112;16.280;2023-10-31T09:24:24;13.50;1.00
54788;DHT22;59598;48.112;16.280;2023-10-31T09:26:56;13.40;1.00
54788;DHT22;59598;48.112;16.280;2023-10-31T09:29:32;13.40;1.00
54788;DHT22;59598;48.112;16.280;2023-10-31T09:32:04;13.40;1.00
54788;DHT22;59598;48.112;16.280;2023-10-31T09:38:04;13.00;99.90
54788;DHT22;59598;48.112;16.280;2023-10-31T09:40:38;12.50;1.00
54788;DHT22;59598;48.112;16.280;2023-10-31T09:43:11;12.30;1.00
54788;DHT22;59598;48.112;16.280;2023-10-31T09:45:47;12.10;1.00
54788;DHT22;59598;48.112;16.280;2023-10-31T09:48:22;12.00;1.00
54788;DHT22;59598;48.112;16.280;2023-10-31T09:50:56;11.90;1.00
54788;DHT22;59598;48.112;16.280;2023-10-31T09:53:29;11.80;1.00
54788;DHT22;59598;48.112;16.280;2023-10-31T09:56:04;11.70;1.00
54788;DHT22;59598;48.112;16.280;2023-10-31T09:58:37;11.70;1.00
54788;DHT22;59598;48.112;16.280;2023-10-31T10:01:10;11.60;1.00
54788;DHT22;59598;48.112;16.280;2023-10-31T10:03:42;11.60;1.00
54788;DHT22;59598;48.112;16.280;2023-10-31T10:06:21;11.40;1.00
54788;DHT22;59598;48.112;16.280;2023-10-31T10:08:55;11.30;1.00
54788;DHT22;59598;48.112;16.280;2023-10-31T10:11:27;11.20;39.80
54788;DHT22;59598;48.112;16.280;2023-10-31T10:14:01;11.10;99.20
54788;DHT22;59598;48.112;16.280;2023-10-31T10:16:33;11.00;99.90
54788;DHT22;59598;48.112;16.280;2023-10-31T10:19:20;11.00;99.90
54788;DHT22;59598;48.112;16.280;2023-10-31T10:21:53;10.90;99.90
54788;DHT22;59598;48.112;16.280;2023-10-31T10:24:25;10.80;99.90
54788;DHT22;59598;48.112;16.280;2023-10-31T10:26:56;10.80;99.90
54788;DHT22;59598;48.112;16.280;2023-10-31T10:29:27;10.70;99.90
54788;DHT22;59598;48.112;16.280;2023-10-31T10:32:01;10.70;99.90
54788;DHT22;59598;48.112;16.280;2023-10-31T10:34:39;10.70;99.90
54788;DHT22;59598;48.112;16.280;2023-10-31T10:37:19;10.60;99.90
54788;DHT22;59598;48.112;16.280;2023-10-31T10:39:51;10.60;99.90
54788;DHT22;59598;48.112;16.280;2023-10-31T10:42:44;10.60;99.90
54788;DHT22;59598;48.112;16.280;2023-10-31T10:45:16;10.50;99.90
54788;DHT22;59598;48.112;16.280;2023-10-31T10:47:52;10.50;99.90
54788;DHT22;59598;48.112;16.280;2023-10-31T10:50:28;10.50;99.90
54788;DHT22;59598;48.112;16.280;2023-10-31T10:53:22;10.50;99.90
54788;DHT22;59598;48.112;16.280;2023-10-31T10:56:00;10.40;99.90
54788;DHT22;59598;48.112;16.280;2023-10-31T10:58:51;10.40;99.90
54788;DHT22;59598;48.112;16.280;2023-10-31T11:01:24;10.40;99.90
54788;DHT22;59598;48.112;16.280;2023-10-31T11:03:59;10.40;99.90
54788;DHT22;59598;48.112;16.280;2023-10-31T11:06:31;10.30;99.90
54788;DHT22;59598;48.112;16.280;2023-10-31T11:09:05;10.30;99.90
54788;DHT22;59598;48.112;16.280;2023-10-31T11:11:48;10.30;99.90
54788;DHT22;59598;48.112;16.280;2023-10-31T11:14:20;10.30;99.90
54788;DHT22;59598;48.112;16.280;2023-10-31T11:16:59;10.30;99.90
54788;DHT22;59598;48.112;16.280;2023-10-31T11:19:33;10.30;99.90
54788;DHT22;59598;48.112;16.280;2023-10-31T11:22:07;10.30;99.90
54788;DHT22;59598;48.112;16.280;2023-10-31T11:24:45;10.30;99.90
54788;DHT22;59598;48.112;16.280;2023-10-31T11:27:19;10.30;99.90
54788;DHT22;59598;48.112;16.280;2023-10-31T11:29:50;10.30;99.90
54788;DHT22;59598;48.112;16.280;2023-10-31T11:32:22;10.30;99.90
54788;DHT22;59598;48.112;16.280;2023-10-31T11:34:55;10.30;99.90
54788;DHT22;59598;48.112;16.280;2023-10-31T11:37:33;10.30;99.90
54788;DHT22;59598;48.112;16.280;2023-10-31T11:42:56;10.20;99.90
54788;DHT22;59598;48.112;16.280;2023-10-31T11:45:34;10.20;99.90
54788;DHT22;59598;48.112;16.280;2023-10-31T11:48:07;10.20;99.90
54788;DHT22;59598;48.112;16.280;2023-10-31T11:50:41;10.20;99.90
54788;DHT22;59598;48.112;16.280;2023-10-31T11:53:19;10.20;99.90
54788;DHT22;59598;48.112;16.280;2023-10-31T11:55:53;10.20;99.90
54788;DHT22;59598;48.112;16.280;2023-10-31T11:58:27;10.20;99.90
54788;DHT22;59598;48.112;16.280;2023-10-31T12:01:02;10.20;99.90
54788;DHT22;59598;48.112;16.280;2023-10-31T12:03:43;10.20;99.90
54788;DHT22;59598;48.112;16.280;2023-10-31T12:06:18;10.20;99.90
54788;DHT22;59598;48.112;16.280;2023-10-31T12:08:52;10.10;99.90
54788;DHT22;59598;48.112;16.280;2023-10-31T12:11:26;10.10;99.90
54788;DHT22;59598;48.112;16.280;2023-10-31T12:14:03;10.10;99.90
54788;DHT22;59598;48.112;16.280;2023-10-31T12:16:36;10.10;99.90
54788;DHT22;59598;48.112;16.280;2023-10-31T12:19:09;10.10;99.90
54788;DHT22;59598;48.112;16.280;2023-10-31T12:24:15;10.10;99.90
54788;DHT22;59598;48.112;16.280;2023-10-31T12:26:47;10.10;99.90
54788;DHT22;59598;48.112;16.280;2023-10-31T12:29:23;10.10;99.90
54788;DHT22;59598;48.112;16.280;2023-10-31T12:31:54;10.10;99.90
54788;DHT22;59598;48.112;16.280;2023-10-31T12:34:28;10.00;99.90
54788;DHT22;59598;48.112;16.280;2023-10-31T12:37:00;10.10;99.90
54788;DHT22;59598;48.112;16.280;2023-10-31T12:39:32;10.10;99.90
54788;DHT22;59598;48.112;16.280;2023-10-31T12:42:03;10.00;99.90
54788;DHT22;59598;48.112;16.280;2023-10-31T12:44:35;10.10;99.90
54788;DHT22;59598;48.112;16.280;2023-10-31T12:47:09;10.10;99.90
54788;DHT22;59598;48.112;16.280;2023-10-31T12:49:42;10.10;99.90
54788;DHT22;59598;48.112;16.280;2023-10-31T12:52:13;10.20;99.90
54788;DHT22;59598;48.112;16.280;2023-10-31T12:54:45;10.30;99.90
54788;DHT22;59598;48.112;16.280;2023-10-31T12:57:16;10.20;99.90
54788;DHT22;59598;48.112;16.280;2023-10-31T12:59:48;10.20;99.90
54788;DHT22;59598;48.112;16.280;2023-10-31T13:02:21;10.20;99.90
54788;DHT22;59598;48.112;16.280;2023-10-31T13:04:52;10.30;99.90
54788;DHT22;59598;48.112;16.280;2023-10-31T13:07:30;10.30;99.90
54788;DHT22;59598;48.112;16.280;2023-10-31T13:10:05;10.30;99.90
54788;DHT22;59598;48.112;16.280;2023-10-31T13:12:44;10.30;99.90
54788;DHT22;59598;48.112;16.280;2023-10-31T13:15:17;10.30;99.90
54788;DHT22;59598;48.112;16.280;2023-10-31T13:17:52;10.20;99.90
54788;DHT22;59598;48.112;16.280;2023-10-31T13:20:23;10.20;99.90
54788;DHT22;59598;48.112;16.280;2023-10-31T13:22:54;10.20;99.90
54788;DHT22;59598;48.112;16.280;2023-10-31T13:25:28;10.20;99.90
54788;DHT22;59598;48.112;16.280;2023-10-31T13:28:02;10.10;99.90
54788;DHT22;59598;48.112;16.280;2023-10-31T13:30:37;10.10;99.90
54788;DHT22;59598;48.112;16.280;2023-10-31T13:33:10;10.20;99.90
54788;DHT22;59598;48.112;16.280;2023-10-31T13:35:41;10.20;99.90
54788;DHT22;59598;48.112;16.280;2023-10-31T13:38:18;10.30;99.90
54788;DHT22;59598;48.112;16.280;2023-10-31T13:40:49;10.40;99.90
54788;DHT22;59598;48.112;16.280;2023-10-31T13:43:20;10.40;99.90
54788;DHT22;59598;48.112;16.280;2023-10-31T13:45:51;10.50;99.90
54788;DHT22;59598;48.112;16.280;2023-10-31T13:48:23;10.40;99.90
54788;DHT22;59598;48.112;16.280;2023-10-31T13:50:57;10.40;93.30
54788;DHT22;59598;48.112;16.280;2023-10-31T13:53:30;10.40;99.90
54788;DHT22;59598;48.112;16.280;2023-10-31T13:56:03;10.40;99.90
54788;DHT22;59598;48.112;16.280;2023-10-31T13:58:36;10.50;99.60
54788;DHT22;59598;48.112;16.280;2023-10-31T14:01:08;10.50;97.10
54788;DHT22;59598;48.112;16.280;2023-10-31T14:03:41;10.60;56.90
54788;DHT22;59598;48.112;16.280;2023-10-31T14:06:23;10.80;37.30
54788;DHT22;59598;48.112;16.280;2023-10-31T14:09:03;10.80;44.80
54788;DHT22;59598;48.112;16.280;2023-10-31T14:11:39;10.80;93.40
54788;DHT22;59598;48.112;16.280;2023-10-31T14:14:12;10.80;1.00
54788;DHT22;59598;48.112;16.280;2023-10-31T14:16:46;10.80;1.00
54788;DHT22;59598;48.112;16.280;2023-10-31T14:19:23;10.80;1.00
54788;DHT22;59598;48.112;16.280;2023-10-31T14:21:54;10.70;1.00
54788;DHT22;59598;48.112;16.280;2023-10-31T14:24:26;10.70;1.00
54788;DHT22;59598;48.112;16.280;2023-10-31T14:27:02;10.70;1.00
54788;DHT22;59598;48.112;16.280;2023-10-31T14:29:35;10.80;1.00
54788;DHT22;59598;48.112;16.280;2023-10-31T14:32:09;10.80;1.00
54788;DHT22;59598;48.112;16.280;2023-10-31T14:34:45;10.90;1.00
54788;DHT22;59598;48.112;16.280;2023-10-31T14:37:18;10.90;1.00
54788;DHT22;59598;48.112;16.280;2023-10-31T14:39:52;10.90;1.00
54788;DHT22;59598;48.112;16.280;2023-10-31T14:42:23;10.80;1.00
54788;DHT22;59598;48.112;16.280;2023-10-31T14:44:54;10.80;1.00
54788;DHT22;59598;48.112;16.280;2023-10-31T14:47:30;10.80;1.00
54788;DHT22;59598;48.112;16.280;2023-10-31T14:50:01;10.80;1.00
54788;DHT22;59598;48.112;16.280;2023-10-31T14:52:32;10.90;1.00
54788;DHT22;59598;48.112;16.280;2023-10-31T14:55:06;10.90;1.00
54788;DHT22;59598;48.112;16.280;2023-10-31T14:57:41;10.80;1.00
54788;DHT22;59598;48.112;16.280;2023-10-31T15:00:17;10.80;1.00
54788;DHT22;59598;48.112;16.280;2023-10-31T15:02:51;10.80;1.00
54788;DHT22;59598;48.112;16.280;2023-10-31T15:05:24;10.70;1.00
54788;DHT22;59598;48.112;16.280;2023-10-31T15:07:59;10.80;1.00
54788;DHT22;59598;48.112;16.280;2023-10-31T15:10:33;10.70;1.00
54788;DHT22;59598;48.112;16.280;2023-10-31T15:13:04;10.70;1.00
54788;DHT22;59598;48.112;16.280;2023-10-31T15:15:35;10.70;1.00
54788;DHT22;59598;48.112;16.280;2023-10-31T15:18:06;10.70;1.00
54788;DHT22;59598;48.112;16.280;2023-10-31T15:20:38;10.80;1.00
54788;DHT22;59598;48.112;16.280;2023-10-31T15:23:12;10.80;1.00
54788;DHT22;59598;48.112;16.280;2023-10-31T15:25:45;10.80;1.00
54788;DHT22;59598;48.112;16.280;2023-10-31T15:28:16;10.80;1.00
54788;DHT22;59598;48.112;16.280;2023-10-31T15:30:52;10.80;1.00
54788;DHT22;59598;48.112;16.280;2023-10-31T15:33:23;10.80;1.00
54788;DHT22;59598;48.112;16.280;2023-10-31T15:35:57;10.80;1.00
54788;DHT22;59598;48.112;16.280;2023-10-31T15:38:29;10.80;1.00
54788;DHT22;59598;48.112;16.280;2023-10-31T15:41:02;10.80;1.00
54788;DHT22;59598;48.112;16.280;2023-10-31T15:43:37;10.90;1.00
54788;DHT22;59598;48.112;16.280;2023-10-31T15:46:11;10.80;1.00
54788;DHT22;59598;48.112;16.280;2023-10-31T15:48:44;10.80;1.00
54788;DHT22;59598;48.112;16.280;2023-10-31T15:51:18;10.90;1.00
54788;DHT22;59598;48.112;16.280;2023-10-31T15:53:49;10.90;1.00
54788;DHT22;59598;48.112;16.280;2023-10-31T15:56:21;11.00;1.00
54788;DHT22;59598;48.112;16.280;2023-10-31T15:58:52;11.00;1.00
54788;DHT22;59598;48.112;16.280;2023-10-31T16:01:25;11.00;1.00
54788;DHT22;59598;48.112;16.280;2023-10-31T16:03:57;11.00;1.00
54788;DHT22;59598;48.112;16.280;2023-10-31T16:06:30;11.00;1.00
54788;DHT22;59598;48.112;16.280;2023-10-31T16:09:02;11.00;1.00
54788;DHT22;59598;48.112;16.280;2023-10-31T16:11:34;11.00;1.00
54788;DHT22;59598;48.112;16.280;2023-10-31T16:14:07;11.00;1.00
54788;DHT22;59598;48.112;16.280;2023-10-31T16:16:40;11.00;1.00
54788;DHT22;59598;48.112;16.280;2023-10-31T16:19:17;11.00;1.00
54788;DHT22;59598;48.112;16.280;2023-10-31T16:21:49;11.10;1.00
54788;DHT22;59598;48.112;16.280;2023-10-31T16:24:21;11.10;1.00
54788;DHT22;59598;48.112;16.280;2023-10-31T16:26:52;11.10;1.00
54788;DHT22;59598;48.112;16.280;2023-10-31T16:29:24;11.10;1.00
54788;DHT22;59598;48.112;16.280;2023-10-31T16:31:55;11.10;1.00
54788;DHT22;59598;48.112;16.280;2023-10-31T16:34:26;11.10;1.00
54788;DHT22;59598;48.112;16.280;2023-10-31T16:37:00;11.20;99.90
54788;DHT22;59598;48.112;16.280;2023-10-31T16:39:32;11.20;99.90
54788;DHT22;59598;48.112;16.280;2023-10-31T16:42:08;11.20;99.90
54788;DHT22;59598;48.112;16.280;2023-10-31T16:44:39;11.20;99.90